Time;durP1;ratioP1;P1;durP2;ratioP2;P2;SDS_P1;SDS_P2;PMS_P1;PMS_P2;Temp;Humidity;BMP_temperature;BMP_pressure;BME280_temperature;BME280_humidity;BME280_pressure;Samples;Min_cycle;Max_cycle;Signal;HPM_P1;HPM_P2
2023/10/03 00:00:57;;;;;;;8.88;3.72;;;;;;;16.66;59.03;100574.25;7658104;32;39611;-79
2023/10/03 00:05:17;;;;;;;8.77;4.32;;;;;;;16.68;58.18;100572.06;7657812;32;38009;-80
2023/10/03 00:09:35;;;;;;;10.68;4.03;;;;;;;16.66;58.40;100563.25;7658143;32;38122;-79
2023/10/03 00:13:52;;;;;;;9.30;3.67;;;;;;;16.53;58.40;100568.34;7670280;32;39444;-80
2023/10/03 00:18:09;;;;;;;9.52;4.05;;;;;;;16.44;58.46;100558.31;7684273;32;40170;-80
2023/10/03 00:22:25;;;;;;;10.18;3.80;;;;;;;16.57;58.27;100545.75;7684024;32;37980;-80
2023/10/03 00:26:44;;;;;;;8.57;3.53;;;;;;;16.40;58.53;100551.72;7684314;32;35395;-80
2023/10/03 00:31:00;;;;;;;9.25;4.15;;;;;;;16.61;57.79;100538.53;7684184;32;38320;-79
2023/10/03 00:35:19;;;;;;;9.98;3.83;;;;;;;16.50;57.79;100543.34;7683615;32;40197;-78
2023/10/03 00:39:36;;;;;;;10.57;4.03;;;;;;;16.60;58.02;100534.16;7683618;32;38029;-79
2023/10/03 00:43:58;;;;;;;9.85;3.40;;;;;;;16.36;58.26;100539.69;7683614;32;37883;-80
2023/10/03 00:48:18;;;;;;;7.75;3.53;;;;;;;16.45;58.06;100535.16;7683457;32;39125;-79
2023/10/03 00:52:37;;;;;;;14.65;4.53;;;;;;;16.52;57.72;100527.38;7683392;32;40867;-80
2023/10/03 00:56:53;;;;;;;9.65;3.78;;;;;;;16.53;57.89;100521.56;7666753;32;38673;-79
2023/10/03 01:01:11;;;;;;;10.35;4.18;;;;;;;16.32;58.53;100509.19;7660311;32;37121;-80
2023/10/03 01:05:28;;;;;;;9.95;4.35;;;;;;;16.23;59.89;100506.25;7660037;32;40168;-80
2023/10/03 01:09:45;;;;;;;9.95;4.18;;;;;;;16.19;61.39;100502.44;7660777;32;40889;-78
2023/10/03 01:14:01;;;;;;;9.55;3.65;;;;;;;16.19;61.02;100504.38;7660047;32;37930;-80
2023/10/03 01:18:22;;;;;;;9.10;3.87;;;;;;;16.32;59.71;100500.91;7660151;32;37175;-80
2023/10/03 01:22:43;;;;;;;9.88;4.00;;;;;;;16.36;59.57;100501.97;7660184;32;39052;-79
2023/10/03 01:27:00;;;;;;;8.15;3.45;;;;;;;16.21;59.83;100500.22;7659896;32;40025;-79
2023/10/03 01:31:16;;;;;;;15.07;4.78;;;;;;;16.42;58.62;100489.78;7659800;32;38718;-79
2023/10/03 01:35:33;;;;;;;7.78;4.00;;;;;;;16.22;59.21;100496.34;7659732;32;37135;-79
2023/10/03 01:39:49;;;;;;;9.25;3.83;;;;;;;16.12;59.66;100502.78;7659953;32;40085;-79
2023/10/03 01:44:06;;;;;;;11.02;4.30;;;;;;;16.20;58.95;100503.25;7659926;32;40881;-79
2023/10/03 01:48:23;;;;;;;9.48;4.35;;;;;;;16.26;58.30;100491.06;7660442;32;37985;-79
2023/10/03 01:52:41;;;;;;;9.85;3.90;;;;;;;15.95;58.67;100485.91;7659737;32;37263;-79
2023/10/03 01:57:00;;;;;;;8.20;3.80;;;;;;;16.04;58.04;100494.34;7659750;32;40095;-78
2023/10/03 02:01:16;;;;;;;11.10;3.70;;;;;;;16.11;57.23;100481.91;7665988;32;40851;-79
2023/10/03 02:05:35;;;;;;;10.20;3.55;;;;;;;16.02;57.52;100480.87;7684857;32;37766;-79
2023/10/03 02:09:51;;;;;;;8.00;3.55;;;;;;;15.89;57.76;100470.59;7684745;32;36928;-79
2023/10/03 02:14:08;;;;;;;10.68;3.85;;;;;;;15.97;57.41;100469.97;7685740;32;39830;-80
2023/10/03 02:18:24;;;;;;;9.50;3.62;;;;;;;16.04;57.21;100473.19;7685740;32;39681;-79
2023/10/03 02:22:41;;;;;;;9.30;3.87;;;;;;;15.88;57.59;100475.25;7685612;32;39059;-78
2023/10/03 02:27:00;;;;;;;8.43;3.42;;;;;;;16.07;58.12;100478.06;7685570;32;37192;-79
2023/10/03 02:31:17;;;;;;;7.60;3.47;;;;;;;15.96;57.81;100479.31;7685703;32;39559;-79
2023/10/03 02:35:33;;;;;;;7.78;4.15;;;;;;;15.91;57.53;100473.84;7685228;32;40072;-79
2023/10/03 02:39:51;;;;;;;9.52;4.10;;;;;;;15.80;57.89;100464.91;7685112;32;38731;-79
2023/10/03 02:44:10;;;;;;;12.30;4.18;;;;;;;15.73;57.82;100453.41;7685401;32;37911;-79
2023/10/03 02:48:26;;;;;;;13.52;4.40;;;;;;;15.75;59.44;100457.53;7685378;32;38268;-80
2023/10/03 02:52:45;;;;;;;12.05;3.78;;;;;;;15.75;60.23;100454.78;7685273;32;39738;-79
2023/10/03 02:57:02;;;;;;;11.15;3.78;;;;;;;15.76;59.24;100448.19;7661271;32;37690;-79
2023/10/03 03:01:21;;;;;;;7.57;3.53;;;;;;;15.58;58.34;100449.69;7658837;32;37040;-80
2023/10/03 03:05:42;;;;;;;7.75;3.97;;;;;;;15.61;57.84;100440.03;7658916;32;40077;-80
2023/10/03 03:09:59;;;;;;;9.18;3.50;;;;;;;15.29;60.48;100444.16;7658709;32;40024;-82
2023/10/03 03:14:15;;;;;;;8.68;4.00;;;;;;;15.61;60.39;100442.78;7684596;32;38258;-79
2023/10/03 03:18:39;;;;;;;13.02;4.03;;;;;;;15.55;60.85;100441.19;7685098;32;37830;-78
2023/10/03 03:23:00;;;;;;;11.12;4.35;;;;;;;15.56;60.30;100437.34;7685014;32;39342;-79
2023/10/03 03:27:17;;;;;;;7.18;3.97;;;;;;;15.35;62.30;100439.44;7684909;32;40763;-79
2023/10/03 03:31:33;;;;;;;8.82;4.18;;;;;;;15.38;61.88;100430.63;7684768;32;37916;-79
2023/10/03 03:35:50;;;;;;;6.82;3.47;;;;;;;15.43;60.92;100433.31;7684737;32;37889;-79
2023/10/03 03:40:13;;;;;;;8.57;4.12;;;;;;;15.54;60.14;100428.56;7683573;32;39354;-79
2023/10/03 03:44:29;;;;;;;11.10;3.95;;;;;;;15.36;60.98;100430.91;7684732;32;40804;-79
2023/10/03 03:48:46;;;;;;;10.75;3.90;;;;;;;15.44;60.68;100431.41;7675727;32;38019;-79
2023/10/03 03:53:03;;;;;;;10.02;4.05;;;;;;;15.30;61.10;100437.56;7655707;32;37161;-79
2023/10/03 03:57:20;;;;;;;8.48;4.15;;;;;;;15.39;61.69;100430.34;7654484;32;39417;-79
2023/10/03 04:01:37;;;;;;;11.30;4.07;;;;;;;15.28;62.49;100423.31;7658180;32;40717;-79
2023/10/03 04:05:57;;;;;;;12.70;4.20;;;;;;;15.11;62.41;100428.38;7658025;32;38084;-79
2023/10/03 04:10:13;;;;;;;12.43;4.68;;;;;;;15.29;61.77;100427.69;7658030;32;37196;-79
2023/10/03 04:14:30;;;;;;;9.48;4.22;;;;;;;15.15;62.22;100427.50;7657912;32;39432;-78
2023/10/03 04:18:49;;;;;;;10.98;4.90;;;;;;;15.18;63.13;100428.88;7657953;32;41323;-79
2023/10/03 04:23:07;;;;;;;11.65;4.47;;;;;;;15.29;62.56;100432.38;7657726;32;38011;-79
2023/10/03 04:27:25;;;;;;;11.10;4.55;;;;;;;15.33;62.30;100426.00;7656570;32;37320;-79
2023/10/03 04:31:41;;;;;;;10.00;4.47;;;;;;;15.23;62.51;100430.75;7657554;32;39428;-79
2023/10/03 04:36:04;;;;;;;9.75;4.55;;;;;;;15.23;62.51;100431.59;7657790;32;40783;-78
2023/10/03 04:40:24;;;;;;;9.57;3.90;;;;;;;15.19;62.56;100420.37;7657322;32;37937;-78
2023/10/03 04:44:41;;;;;;;11.23;4.18;;;;;;;15.08;62.75;100426.22;7666576;32;37811;-79
2023/10/03 04:48:57;;;;;;;7.45;3.55;;;;;;;14.86;62.28;100426.66;7683542;32;40222;-79
2023/10/03 04:53:16;;;;;;;11.93;4.12;;;;;;;15.16;60.57;100425.59;7683121;32;40829;-79
2023/10/03 04:57:33;;;;;;;8.93;3.53;;;;;;;14.99;59.61;100428.75;7657008;32;37854;-78
2023/10/03 05:01:49;;;;;;;11.02;4.35;;;;;;;15.03;59.92;100422.38;7656941;32;37039;-79
2023/10/03 05:06:06;;;;;;;10.93;4.00;;;;;;;15.01;59.26;100418.31;7674333;32;39350;-79
2023/10/03 05:10:23;;;;;;;11.73;3.45;;;;;;;15.20;57.81;100410.19;7682639;32;39743;-79
2023/10/03 05:14:40;;;;;;;9.30;3.67;;;;;;;15.07;57.49;100406.16;7673913;32;37928;-78
2023/10/03 05:18:56;;;;;;;10.90;3.70;;;;;;;14.93;57.84;100408.72;7656553;32;37610;-79
2023/10/03 05:23:14;;;;;;;11.48;3.70;;;;;;;15.11;57.26;100411.88;7656424;32;40044;-78
2023/10/03 05:27:32;;;;;;;9.65;4.60;;;;;;;15.06;58.37;100415.53;7670948;32;40705;-79
2023/10/03 05:31:49;;;;;;;10.70;4.43;;;;;;;15.06;59.94;100425.69;7682547;32;37887;-78
2023/10/03 05:36:05;;;;;;;10.43;4.78;;;;;;;15.10;60.72;100421.25;7664814;32;37066;-78
2023/10/03 05:40:22;;;;;;;9.95;4.12;;;;;;;15.14;61.74;100417.66;7658973;32;39426;-79
2023/10/03 05:44:39;;;;;;;12.75;4.80;;;;;;;15.02;62.58;100431.75;7667511;32;40688;-68
2023/10/03 05:48:55;;;;;;;8.70;4.28;;;;;;;15.09;63.33;100438.81;7685862;32;38061;-67
2023/10/03 05:53:12;;;;;;;8.55;3.70;;;;;;;15.44;63.24;100431.41;7685995;32;37403;-67
2023/10/03 05:57:28;;;;;;;11.82;4.32;;;;;;;15.66;61.75;100433.66;7660154;32;39024;-79
2023/10/03 06:01:45;;;;;;;10.35;4.15;;;;;;;15.62;57.77;100432.63;7659496;32;40654;-79
2023/10/03 06:06:01;;;;;;;12.57;4.70;;;;;;;15.46;58.14;100435.50;7666421;32;38790;-78
2023/10/03 06:10:18;;;;;;;12.27;4.57;;;;;;;15.63;58.38;100435.06;7668994;32;38007;-80
2023/10/03 06:14:34;;;;;;;11.93;4.37;;;;;;;15.81;57.29;100429.97;7660573;32;40065;-79
2023/10/03 06:18:51;;;;;;;14.13;6.03;;;;;;;16.09;55.19;100426.38;7667692;32;38163;-79
2023/10/03 06:23:08;;;;;;;14.02;4.95;;;;;;;15.73;60.21;100434.97;7658753;32;38079;-79
2023/10/03 06:27:26;;;;;;;8.07;3.95;;;;;;;16.05;60.09;100425.28;7659460;32;36915;-82
2023/10/03 06:31:46;;;;;;;11.25;4.60;;;;;;;16.14;59.86;100428.22;7684368;32;39324;-83
2023/10/03 06:36:06;;;;;;;9.55;3.97;;;;;;;16.13;60.30;100437.59;7658967;32;40653;-83
2023/10/03 06:40:23;;;;;;;7.55;4.03;;;;;;;16.33;59.90;100429.09;7659065;32;38796;-81
2023/10/03 06:44:40;;;;;;;10.13;4.40;;;;;;;16.34;59.90;100441.72;7663994;32;36969;-80
2023/10/03 06:48:57;;;;;;;10.63;4.32;;;;;;;16.22;60.45;100435.00;7683581;32;39165;-80
2023/10/03 06:53:13;;;;;;;10.27;3.97;;;;;;;16.62;59.86;100432.84;7685061;32;40799;-81
2023/10/03 06:57:32;;;;;;;10.43;3.78;;;;;;;16.75;58.50;100429.34;7685155;32;38855;-80
2023/10/03 07:01:49;;;;;;;9.38;3.80;;;;;;;16.76;57.13;100436.47;7685295;32;37016;-80
2023/10/03 07:06:05;;;;;;;13.95;4.37;;;;;;;17.14;54.52;100430.16;7685294;32;39300;-81
2023/10/03 07:10:22;;;;;;;22.65;4.32;;;;;;;17.41;52.02;100437.72;7685026;32;40936;-81
2023/10/03 07:14:38;;;;;;;11.63;3.90;;;;;;;17.56;51.20;100433.87;7684835;32;37892;-81
2023/10/03 07:18:55;;;;;;;10.98;4.10;;;;;;;17.56;50.49;100439.41;7684999;32;38093;-81
2023/10/03 07:23:11;;;;;;;8.85;4.12;;;;;;;18.23;49.91;100441.72;7667171;32;39313;-80
2023/10/03 07:27:27;;;;;;;8.07;3.55;;;;;;;18.52;48.71;100435.03;7658442;32;40831;-81
2023/10/03 07:31:45;;;;;;;15.30;3.80;;;;;;;18.38;48.50;100435.91;7670998;32;38801;-81
2023/10/03 07:36:07;;;;;;;12.55;4.18;;;;;;;18.53;48.14;100434.72;7669039;32;36967;-81
2023/10/03 07:40:27;;;;;;;13.85;4.03;;;;;;;19.03;46.85;100439.44;7658118;32;39216;-78
2023/10/03 07:44:44;;;;;;;12.68;4.00;;;;;;;19.35;45.91;100437.56;7679231;32;40765;-78
2023/10/03 07:49:01;;;;;;;12.30;3.58;;;;;;;19.11;45.93;100441.44;7684365;32;37777;-79
2023/10/03 07:53:19;;;;;;;8.27;3.67;;;;;;;19.38;45.52;100431.38;7684542;32;36917;-78
2023/10/03 07:57:37;;;;;;;11.00;4.03;;;;;;;20.04;45.24;100433.53;7684347;32;39277;-78
2023/10/03 08:01:53;;;;;;;12.70;4.10;;;;;;;19.82;45.56;100437.22;7684547;32;38962;-78
2023/10/03 08:06:19;;;;;;;14.13;3.80;;;;;;;20.26;44.70;100432.63;7684400;32;37950;-77
2023/10/03 08:10:36;;;;;;;13.25;3.85;;;;;;;20.49;44.28;100425.06;7684268;32;37379;-66
2023/10/03 08:14:53;;;;;;;11.75;4.07;;;;;;;20.69;44.31;100415.31;7684227;32;39284;-81
2023/10/03 08:19:25;;;;;;;9.10;3.62;;;;;;;20.97;43.91;100396.41;7683009;32;39928;-82
2023/10/03 08:23:41;;;;;;;9.38;3.28;;;;;;;21.06;43.96;100401.94;7684234;32;38156;-80
2023/10/03 08:27:58;;;;;;;10.00;3.50;;;;;;;21.49;43.97;100384.44;7684051;32;37872;-80
2023/10/03 08:32:16;;;;;;;15.77;4.03;;;;;;;21.72;43.57;100386.97;7683945;32;39020;-80
2023/10/03 08:36:37;;;;;;;8.95;4.05;;;;;;;21.71;44.02;100380.63;7684120;32;38511;-80
2023/10/03 08:40:56;;;;;;;12.27;3.92;;;;;;;22.35;42.39;100376.03;7683659;32;38789;-81
2023/10/03 08:45:22;;;;;;;11.00;4.50;;;;;;;22.39;42.60;100371.44;7683741;32;37217;-80
2023/10/03 08:49:41;;;;;;;12.10;3.95;;;;;;;22.43;42.57;100379.91;7682553;32;39132;-80
2023/10/03 08:54:08;;;;;;;14.57;3.85;;;;;;;22.74;41.43;100364.81;7679657;32;39809;-81
2023/10/03 08:58:26;;;;;;;11.88;3.80;;;;;;;23.41;40.80;100360.09;7662217;32;38778;-81
2023/10/03 09:02:47;;;;;;;9.43;4.07;;;;;;;23.72;40.06;100364.31;7657059;32;37275;-81
2023/10/03 09:07:11;;;;;;;13.50;4.12;;;;;;;23.76;38.74;100356.88;7657070;32;39377;-80
2023/10/03 09:11:29;;;;;;;13.07;4.65;;;;;;;23.98;38.72;100353.66;7670118;32;40822;-80
2023/10/03 09:15:46;;;;;;;14.45;4.00;;;;;;;24.05;38.16;100355.06;7659640;32;38042;-81
2023/10/03 09:20:04;;;;;;;8.70;4.15;;;;;;;24.13;38.44;100354.91;7658899;32;37137;-81
2023/10/03 09:24:22;;;;;;;12.32;4.22;;;;;;;24.71;37.68;100351.09;7660093;32;38513;-79
2023/10/03 09:28:40;;;;;;;10.73;4.32;;;;;;;24.71;38.04;100353.88;7686367;32;40740;-81
2023/10/03 09:32:57;;;;;;;13.13;4.20;;;;;;;24.95;37.38;100349.37;7686183;32;37825;-80
2023/10/03 09:37:16;;;;;;;16.87;4.72;;;;;;;25.07;37.56;100343.72;7660724;32;37233;-86
2023/10/03 09:41:38;;;;;;;11.52;4.60;;;;;;;25.53;36.39;100344.19;7691384;32;40043;-83
2023/10/03 09:45:56;;;;;;;14.87;4.30;;;;;;;25.71;36.00;100344.63;7673113;32;39928;-84
2023/10/03 09:50:13;;;;;;;9.52;4.35;;;;;;;25.82;36.15;100342.09;7683439;32;38117;-85
2023/10/03 09:54:34;;;;;;;11.63;4.50;;;;;;;26.07;35.57;100328.75;7662134;32;37018;-81
2023/10/03 09:58:53;;;;;;;11.12;4.47;;;;;;;26.39;35.32;100323.06;7673599;32;39933;-85
2023/10/03 10:03:14;;;;;;;17.12;4.62;;;;;;;26.68;35.71;100323.69;7673011;32;39879;-83
2023/10/03 10:07:43;;;;;;;14.77;4.25;;;;;;;27.10;33.99;100323.72;7660203;32;38762;-79
2023/10/03 10:12:18;;;;;;;23.60;4.32;;;;;;;27.51;33.17;100317.63;7679988;32;37387;-79
2023/10/03 10:16:53;;;;;;;11.88;4.75;;;;;;;27.22;33.60;100313.53;7671832;32;39154;-81
2023/10/03 10:21:26;;;;;;;12.32;4.28;;;;;;;27.81;33.25;100308.53;7680318;32;40006;-81
2023/10/03 10:25:49;;;;;;;15.43;4.50;;;;;;;28.34;31.30;100302.91;7659234;32;37955;-82
2023/10/03 10:30:13;;;;;;;11.07;4.18;;;;;;;28.29;31.48;100300.44;7659285;32;37148;-83
2023/10/03 10:34:35;;;;;;;9.82;4.37;;;;;;;28.03;31.54;100310.50;7659188;32;40219;-83
2023/10/03 10:38:52;;;;;;;13.95;3.87;;;;;;;28.13;31.18;100299.81;7659018;32;40902;-79
2023/10/03 10:43:11;;;;;;;11.90;3.72;;;;;;;28.33;31.55;100298.47;7659234;32;37834;-83
2023/10/03 10:47:28;;;;;;;9.35;3.83;;;;;;;28.19;31.38;100303.91;7673556;32;37216;-81
2023/10/03 10:51:55;;;;;;;14.27;4.12;;;;;;;28.65;29.85;100292.50;7677325;32;39960;-79
2023/10/03 10:56:12;;;;;;;12.40;4.05;;;;;;;28.54;30.04;100286.72;7659558;32;40833;-79
2023/10/03 11:00:28;;;;;;;10.95;3.62;;;;;;;28.38;30.47;100284.13;7658635;32;38791;-79
2023/10/03 11:04:54;;;;;;;13.27;3.97;;;;;;;28.21;30.71;100277.09;7660178;32;35187;-84
2023/10/03 11:09:20;;;;;;;12.05;4.07;;;;;;;28.22;30.65;100272.31;7669551;32;39114;-83
2023/10/03 11:13:45;;;;;;;11.15;3.78;;;;;;;28.22;31.42;100264.72;7685105;32;39914;-82
2023/10/03 11:18:04;;;;;;;12.10;3.85;;;;;;;28.39;30.28;100252.12;7683772;32;38117;-82
2023/10/03 11:22:22;;;;;;;11.63;3.50;;;;;;;28.79;29.99;100247.78;7667891;32;36928;-77
2023/10/03 11:26:42;;;;;;;15.70;4.15;;;;;;;29.24;29.53;100245.00;7658712;32;39410;-79
2023/10/03 11:31:06;;;;;;;12.50;3.60;;;;;;;29.03;29.84;100235.19;7684771;32;40764;-79
2023/10/03 11:35:22;;;;;;;13.25;3.28;;;;;;;29.50;29.63;100223.56;7682316;32;37128;-80
2023/10/03 11:39:39;;;;;;;13.80;3.55;;;;;;;29.68;29.40;100224.47;7658334;32;38139;-78
2023/10/03 11:43:57;;;;;;;9.55;3.20;;;;;;;29.00;29.77;100221.13;7658251;32;39314;-79
2023/10/03 11:48:22;;;;;;;7.72;2.97;;;;;;;29.31;28.99;100210.56;7658164;32;39919;-79
2023/10/03 11:52:40;;;;;;;19.73;3.53;;;;;;;29.41;28.99;100198.62;7658187;32;38797;-80
2023/10/03 11:56:57;;;;;;;9.18;3.40;;;;;;;29.93;29.14;100190.13;7658168;32;35695;-79
2023/10/03 12:01:14;;;;;;;9.27;3.30;;;;;;;29.56;28.72;100200.34;7658268;32;39395;-81
2023/10/03 12:05:31;;;;;;;9.77;3.10;;;;;;;29.69;28.48;100192.38;7658192;32;39962;-71
2023/10/03 12:09:48;;;;;;;8.23;2.45;;;;;;;30.07;27.64;100183.75;7657893;32;38805;-70
2023/10/03 12:14:05;;;;;;;6.93;2.62;;;;;;;30.07;27.71;100184.56;7658039;32;37064;-80
2023/10/03 12:18:22;;;;;;;8.63;3.25;;;;;;;29.97;28.12;100179.69;7658044;32;39220;-80
2023/10/03 12:22:41;;;;;;;11.00;2.97;;;;;;;29.80;28.00;100178.41;7657867;32;39948;-81
2023/10/03 12:27:04;;;;;;;11.32;2.90;;;;;;;29.96;27.67;100173.28;7657794;32;37959;-81
2023/10/03 12:31:25;;;;;;;8.25;2.30;;;;;;;30.23;27.20;100161.72;7657725;32;36949;-80
2023/10/03 12:35:42;;;;;;;8.40;2.05;;;;;;;29.69;28.46;100158.66;7657572;32;40207;-82
2023/10/03 12:40:03;;;;;;;10.57;2.58;;;;;;;29.96;28.13;100155.63;7657566;32;40790;-80
2023/10/03 12:44:20;;;;;;;7.57;2.77;;;;;;;30.43;26.91;100139.69;7657444;32;38748;-81
2023/10/03 12:48:38;;;;;;;11.12;2.85;;;;;;;30.45;27.01;100148.53;7656439;32;36930;-80
2023/10/03 12:52:57;;;;;;;8.90;2.83;;;;;;;30.31;26.87;100143.66;7657373;32;40159;-81
2023/10/03 12:57:13;;;;;;;7.45;2.55;;;;;;;30.38;26.71;100136.47;7657202;32;40021;-80
2023/10/03 13:01:31;;;;;;;6.60;2.15;;;;;;;30.53;26.73;100121.25;7656947;32;38001;-80
2023/10/03 13:05:48;;;;;;;8.00;3.00;;;;;;;30.22;26.51;100117.94;7656920;32;37487;-80
2023/10/03 13:10:06;;;;;;;5.28;2.60;;;;;;;29.78;27.06;100113.38;7656950;32;39255;-81
2023/10/03 13:14:23;;;;;;;6.57;2.67;;;;;;;29.86;27.19;100117.81;7656681;32;40070;-80
2023/10/03 13:18:39;;;;;;;4.87;2.30;;;;;;;29.85;28.14;100107.78;7656656;32;38713;-81
2023/10/03 13:22:57;;;;;;;8.15;2.65;;;;;;;30.45;26.82;100109.16;7656455;32;37918;-81
2023/10/03 13:27:14;;;;;;;5.90;2.45;;;;;;;30.67;26.30;100112.81;7656548;32;39376;-81
2023/10/03 13:31:31;;;;;;;6.22;2.30;;;;;;;30.77;25.73;100101.94;7656370;32;39776;-80
2023/10/03 13:35:48;;;;;;;5.28;2.47;;;;;;;30.62;26.16;100104.75;7655857;32;37978;-80
2023/10/03 13:40:06;;;;;;;6.62;1.83;;;;;;;31.05;25.65;100096.31;7655945;32;37920;-81
2023/10/03 13:44:22;;;;;;;4.95;1.90;;;;;;;31.03;24.89;100093.12;7655919;32;38645;-80
2023/10/03 13:48:39;;;;;;;7.82;2.40;;;;;;;30.91;25.62;100087.87;7655742;32;40703;-81
2023/10/03 13:52:56;;;;;;;7.20;2.00;;;;;;;31.16;25.78;100089.88;7655558;32;38853;-81
2023/10/03 13:57:15;;;;;;;6.90;2.20;;;;;;;31.59;24.90;100087.75;7655630;32;37765;-80
2023/10/03 14:01:32;;;;;;;4.50;2.30;;;;;;;31.33;25.28;100076.97;7658810;32;39394;-80
2023/10/03 14:05:48;;;;;;;11.25;2.53;;;;;;;31.33;25.03;100072.13;7659527;32;40688;-82
2023/10/03 14:10:06;;;;;;;6.57;2.17;;;;;;;31.00;25.74;100076.22;7659414;32;37736;-81
2023/10/03 14:14:25;;;;;;;7.62;2.25;;;;;;;31.33;24.92;100079.78;7659305;32;37778;-80
2023/10/03 14:18:42;;;;;;;5.25;2.05;;;;;;;31.26;25.35;100072.94;7659358;32;39417;-80
2023/10/03 14:22:59;;;;;;;13.68;3.05;;;;;;;31.35;24.66;100071.72;7659268;32;40874;-80
2023/10/03 14:27:15;;;;;;;8.30;2.80;;;;;;;31.16;25.62;100078.59;7659081;32;38703;-80
2023/10/03 14:31:33;;;;;;;6.90;2.53;;;;;;;31.11;25.55;100070.56;7659066;32;37381;-81
2023/10/03 14:35:50;;;;;;;5.10;2.20;;;;;;;30.79;25.54;100077.03;7668701;32;38341;-82
2023/10/03 14:40:15;;;;;;;5.87;2.55;;;;;;;30.62;26.07;100065.38;7670379;32;39769;-82
2023/10/03 14:44:32;;;;;;;8.85;2.72;;;;;;;30.59;26.40;100056.94;7671482;32;38481;-83
2023/10/03 14:48:49;;;;;;;5.65;2.42;;;;;;;30.85;25.95;100058.53;7670656;32;36940;-82
2023/10/03 14:53:07;;;;;;;7.45;2.30;;;;;;;30.61;25.51;100049.69;7683019;32;39303;-82
2023/10/03 14:57:23;;;;;;;5.53;2.25;;;;;;;30.84;25.82;100045.69;7684571;32;40796;-82
2023/10/03 15:01:40;;;;;;;8.73;2.40;;;;;;;30.79;26.75;100044.06;7685172;32;38029;-83
2023/10/03 15:05:56;;;;;;;5.25;2.05;;;;;;;31.16;26.04;100044.81;7685251;32;38020;-82
2023/10/03 15:10:12;;;;;;;6.85;2.05;;;;;;;30.91;25.37;100045.66;7684483;32;40745;-82
2023/10/03 15:14:29;;;;;;;11.18;2.50;;;;;;;30.37;26.33;100039.25;7683871;32;40626;-82
2023/10/03 15:18:45;;;;;;;7.20;2.70;;;;;;;30.30;26.54;100032.41;7684980;32;38726;-82
2023/10/03 15:23:02;;;;;;;10.18;2.40;;;;;;;30.43;26.63;100037.66;7684829;32;38012;-82
2023/10/03 15:27:19;;;;;;;10.18;2.55;;;;;;;30.46;26.12;100037.66;7673906;32;364010;-82
2023/10/03 15:31:36;;;;;;;7.53;2.55;;;;;;;30.00;27.16;100031.97;7684726;32;40944;-83
2023/10/03 15:35:55;;;;;;;9.20;2.92;;;;;;;29.81;27.15;100025.50;7684649;32;37751;-81
2023/10/03 15:40:15;;;;;;;9.40;2.50;;;;;;;29.34;27.42;100024.50;7684948;32;37910;-81
2023/10/03 15:44:32;;;;;;;8.15;2.40;;;;;;;29.57;27.45;100015.75;7684697;32;39428;-83
2023/10/03 15:48:48;;;;;;;10.25;2.35;;;;;;;29.84;26.80;100018.25;7679498;32;40017;-83
2023/10/03 15:53:07;;;;;;;6.82;2.30;;;;;;;29.15;28.13;100015.16;7682782;32;38320;-83
2023/10/03 15:57:24;;;;;;;5.43;1.90;;;;;;;27.96;29.84;100023.78;7683978;32;38063;-84
2023/10/03 16:01:41;;;;;;;10.68;2.40;;;;;;;28.51;28.69;100018.31;7682237;32;39125;-79
2023/10/03 16:05:58;;;;;;;7.78;2.42;;;;;;;28.72;28.34;100011.25;7667726;32;40910;-83
2023/10/03 16:10:18;;;;;;;8.68;2.20;;;;;;;27.45;30.70;100014.81;7656647;32;37923;-83
2023/10/03 16:14:35;;;;;;;11.25;2.30;;;;;;;26.37;32.57;100020.75;7657802;32;37717;-82
2023/10/03 16:18:51;;;;;;;5.72;2.00;;;;;;;26.48;32.33;100030.16;7657037;32;40160;-84
2023/10/03 16:23:10;;;;;;;6.35;2.03;;;;;;;26.75;31.65;100027.41;7656014;32;39983;-83
2023/10/03 16:27:26;;;;;;;5.55;2.55;;;;;;;26.38;32.24;100028.78;7657292;32;37836;-83
2023/10/03 16:31:46;;;;;;;8.43;2.33;;;;;;;25.31;34.26;100030.31;7656382;32;37892;-85
2023/10/03 16:36:05;;;;;;;9.55;2.17;;;;;;;26.03;33.06;100026.19;7657220;32;39500;-84
2023/10/03 16:40:22;;;;;;;8.23;2.10;;;;;;;25.85;33.99;100029.41;7656264;32;40123;-82
2023/10/03 16:44:39;;;;;;;6.43;2.22;;;;;;;25.42;34.94;100031.34;7657183;32;38432;-83
2023/10/03 16:48:56;;;;;;;6.00;1.83;;;;;;;25.51;34.58;100022.75;7656413;32;37133;-84
2023/10/03 16:53:12;;;;;;;8.98;2.50;;;;;;;25.06;35.78;100019.38;7656551;32;40115;-83
2023/10/03 16:57:29;;;;;;;4.75;2.20;;;;;;;25.54;35.05;100026.78;7656572;32;39835;-83
2023/10/03 17:01:47;;;;;;;9.43;2.65;;;;;;;25.13;35.90;100013.16;7661312;32;38741;-83
2023/10/03 17:06:04;;;;;;;9.65;2.60;;;;;;;25.02;36.13;100017.69;7683137;32;36960;-83
2023/10/03 17:10:22;;;;;;;10.55;2.87;;;;;;;24.83;36.57;100004.50;7682356;32;40066;-82
2023/10/03 17:14:41;;;;;;;12.07;2.78;;;;;;;24.60;36.72;100016.34;7682337;32;39935;-83
2023/10/03 17:18:58;;;;;;;9.85;2.60;;;;;;;24.69;36.57;100016.94;7681915;32;38120;-82
2023/10/03 17:23:15;;;;;;;5.37;2.20;;;;;;;24.69;36.78;100016.94;7682225;32;38491;-83
2023/10/03 17:27:32;;;;;;;7.18;2.42;;;;;;;23.71;38.88;100017.53;7682266;32;39383;-84
2023/10/03 17:31:49;;;;;;;6.28;2.78;;;;;;;24.18;37.91;100030.75;7681355;32;39947;-82
2023/10/03 17:36:05;;;;;;;6.40;2.47;;;;;;;24.36;37.23;100029.25;7684380;32;38673;-83
2023/10/03 17:40:25;;;;;;;10.07;2.40;;;;;;;24.16;37.83;100025.56;7686164;32;37744;-81
2023/10/03 17:44:41;;;;;;;8.57;2.30;;;;;;;24.28;37.81;100024.66;7684986;32;39332;-81
2023/10/03 17:49:00;;;;;;;4.32;2.58;;;;;;;24.33;37.40;100032.75;7686135;32;40011;-83
2023/10/03 17:53:17;;;;;;;6.90;2.28;;;;;;;24.09;37.84;100021.78;7685910;32;37789;-83
2023/10/03 17:57:34;;;;;;;7.37;2.35;;;;;;;24.30;37.54;100030.69;7686015;32;37767;-83
2023/10/03 18:01:53;;;;;;;8.35;2.40;;;;;;;24.30;37.48;100027.91;7681543;32;39046;-83
2023/10/03 18:06:12;;;;;;;13.23;2.70;;;;;;;24.01;38.38;100029.16;7671177;32;39893;-83
2023/10/03 18:10:29;;;;;;;9.07;2.33;;;;;;;23.96;38.35;100040.53;7670953;32;38666;-83
2023/10/03 18:14:45;;;;;;;8.63;2.40;;;;;;;23.83;38.64;100042.56;7672169;32;37765;-82
2023/10/03 18:19:02;;;;;;;9.18;2.83;;;;;;;23.89;38.61;100035.59;7671611;32;39430;-84
2023/10/03 18:23:21;;;;;;;7.90;2.47;;;;;;;23.37;39.82;100047.56;7671422;32;40012;-83
2023/10/03 18:27:38;;;;;;;9.02;2.90;;;;;;;23.49;39.57;100047.56;7671974;32;37079;-83
2023/10/03 18:31:57;;;;;;;9.25;2.80;;;;;;;23.33;40.21;100046.66;7669360;32;35837;-82
2023/10/03 18:36:20;;;;;;;8.25;2.75;;;;;;;23.15;40.55;100044.16;7671063;32;39175;-81
2023/10/03 18:40:40;;;;;;;7.93;2.65;;;;;;;22.94;41.14;100040.66;7671991;32;39773;-81
2023/10/03 18:44:56;;;;;;;9.27;3.00;;;;;;;22.94;41.16;100035.12;7671041;32;38757;-82
2023/10/03 18:49:13;;;;;;;8.57;2.87;;;;;;;22.72;41.36;100047.53;7671260;32;37969;-81
2023/10/03 18:53:29;;;;;;;11.10;3.65;;;;;;;22.63;41.72;100045.69;7670737;32;40078;-81
2023/10/03 18:57:49;;;;;;;14.50;3.42;;;;;;;22.54;41.96;100049.72;7670056;32;40087;-87
2023/10/03 19:02:06;;;;;;;7.95;3.15;;;;;;;22.38;42.21;100052.38;7671798;32;36158;-86
2023/10/03 19:06:25;;;;;;;8.70;3.05;;;;;;;22.27;42.43;100052.00;7670598;32;36882;-86
2023/10/03 19:10:41;;;;;;;8.95;3.03;;;;;;;22.48;42.15;100049.94;7668292;32;39549;-87
2023/10/03 19:14:58;;;;;;;7.50;3.58;;;;;;;22.13;42.88;100050.34;7666368;32;40920;-84
2023/10/03 19:19:15;;;;;;;13.95;3.60;;;;;;;22.18;42.87;100048.47;7666671;32;38590;-84
2023/10/03 19:23:41;;;;;;;14.80;3.50;;;;;;;22.04;42.97;100049.63;7680000;32;37846;-84
2023/10/03 19:27:58;;;;;;;9.80;3.40;;;;;;;22.01;43.10;100050.31;7663361;32;38087;-86
2023/10/03 19:32:17;;;;;;;8.15;3.53;;;;;;;21.80;43.64;100044.81;7665460;32;39872;-87
2023/10/03 19:36:35;;;;;;;12.48;3.55;;;;;;;21.68;43.49;100044.72;7668894;32;38753;-87
2023/10/03 19:41:01;;;;;;;10.35;3.40;;;;;;;21.61;43.81;100047.25;7669905;32;39239;-85
2023/10/03 19:45:27;;;;;;;12.57;3.87;;;;;;;21.68;43.76;100037.25;7666977;32;39795;-85
2023/10/03 19:49:49;;;;;;;9.40;3.42;;;;;;;21.63;43.67;100029.12;7669287;32;40621;-86
2023/10/03 19:54:07;;;;;;;9.90;3.25;;;;;;;21.53;43.87;100029.56;7668707;32;38552;-85